createdAt,value
2019-02-21T00:00:23.874Z,47.30
2019-02-21T00:02:50.177Z,49.17
2019-02-21T00:05:19.849Z,48.40
2019-02-21T00:07:49.520Z,48.27
2019-02-21T00:10:19.336Z,42.93
2019-02-21T00:12:48.986Z,43.53
2019-02-21T00:15:18.734Z,44.97
2019-02-21T00:17:48.563Z,45.73
2019-02-21T00:20:18.399Z,40.43
2019-02-21T00:22:48.077Z,45.13
2019-02-21T00:25:17.832Z,43.07
2019-02-21T00:27:47.531Z,48.40
2019-02-21T00:30:17.253Z,42.57
2019-02-21T00:32:46.975Z,45.53
2019-02-21T00:35:16.226Z,44.20
2019-02-21T00:37:45.775Z,39.77
2019-02-21T00:40:14.990Z,44.40
2019-02-21T00:42:44.246Z,40.20
2019-02-21T00:45:13.855Z,40.03
2019-02-21T00:47:43.522Z,42.93
2019-02-21T00:50:12.938Z,62.50
2019-02-21T00:52:42.162Z,47.87
2019-02-21T00:55:11.829Z,46.50
2019-02-21T00:57:41.607Z,41.60
2019-02-21T01:00:12.463Z,42.87
2019-02-21T01:02:41.635Z,43.60
2019-02-21T01:05:11.446Z,39.40
2019-02-21T01:07:40.803Z,43.77
2019-02-21T01:10:10.879Z,40.27
2019-02-21T01:12:40.575Z,35.10
2019-02-21T01:15:10.615Z,34.80
2019-02-21T01:17:40.582Z,34.67
2019-02-21T01:20:10.428Z,37.23
2019-02-21T01:22:39.687Z,38.43
2019-02-21T01:25:08.930Z,34.60
2019-02-21T01:27:38.167Z,44.57
2019-02-21T01:30:07.466Z,38.17
2019-02-21T01:32:36.733Z,37.93
2019-02-21T01:35:06.119Z,42.90
2019-02-21T01:37:35.284Z,35.23
2019-02-21T01:40:04.715Z,32.77
2019-02-21T01:42:33.853Z,38.20
2019-02-21T01:45:03.470Z,34.97
2019-02-21T01:47:33.345Z,38.73
2019-02-21T01:50:02.705Z,40.70
2019-02-21T01:52:33.634Z,38.53
2019-02-21T01:55:03.526Z,34.47
2019-02-21T01:57:32.793Z,33.13
2019-02-21T02:00:02.032Z,40.80
2019-02-21T02:02:32.116Z,39.90
2019-02-21T02:05:02.172Z,33.77
2019-02-21T02:07:31.336Z,34.50
2019-02-21T02:10:00.579Z,41.60
2019-02-21T02:12:30.022Z,37.87
2019-02-21T02:14:59.772Z,37.27
2019-02-21T02:17:29.896Z,37.17
2019-02-21T02:19:59.494Z,35.30
2019-02-21T02:22:29.162Z,38.83
2019-02-21T02:24:58.399Z,36.23
2019-02-21T02:27:27.688Z,34.23
2019-02-21T02:29:56.828Z,39.10
2019-02-21T02:32:26.075Z,34.67
2019-02-21T02:34:55.210Z,43.07
2019-02-21T02:37:24.442Z,42.07
2019-02-21T02:39:54.279Z,38.30
2019-02-21T02:42:23.602Z,41.93
2019-02-21T02:44:53.157Z,34.77
2019-02-21T02:47:23.874Z,36.43
2019-02-21T02:49:53.609Z,44.30
2019-02-21T02:52:23.345Z,42.73
2019-02-21T02:54:53.079Z,38.20
2019-02-21T02:57:22.824Z,43.17
2019-02-21T02:59:52.159Z,39.43
2019-02-21T03:02:21.916Z,42.63
2019-02-21T03:04:51.296Z,42.03
2019-02-21T03:07:20.554Z,40.77
2019-02-21T03:09:51.162Z,41.37
2019-02-21T03:12:20.937Z,41.10
2019-02-21T03:14:50.661Z,43.90
2019-02-21T03:17:20.333Z,39.50
2019-02-21T03:19:50.024Z,41.70
2019-02-21T03:22:19.751Z,40.53
2019-02-21T03:24:49.026Z,40.80
2019-02-21T03:27:18.204Z,42.40
2019-02-21T03:29:47.919Z,39.20
2019-02-21T03:32:17.205Z,44.33
2019-02-21T03:34:46.381Z,44.70
2019-02-21T03:37:15.832Z,49.83
2019-02-21T03:39:45.568Z,41.80
2019-02-21T03:42:14.924Z,40.70
2019-02-21T03:44:44.074Z,46.13
2019-02-21T03:47:13.713Z,43.60
2019-02-21T03:49:43.456Z,46.20
2019-02-21T03:52:13.219Z,44.90
2019-02-21T03:54:42.494Z,45.40
2019-02-21T03:57:11.751Z,45.47
2019-02-21T03:59:41.443Z,45.63
2019-02-21T04:02:10.724Z,44.03
2019-02-21T04:04:39.927Z,47.70
2019-02-21T04:07:09.346Z,50.00
2019-02-21T04:09:38.911Z,47.53
2019-02-21T04:12:08.745Z,48.47
2019-02-21T04:14:38.115Z,50.13
2019-02-21T04:17:07.319Z,47.67
2019-02-21T04:19:37.090Z,45.70
2019-02-21T04:22:06.852Z,49.23
2019-02-21T04:24:36.129Z,54.53
2019-02-21T04:27:05.399Z,58.37
2019-02-21T04:29:34.671Z,50.10
2019-02-21T04:32:16.169Z,55.57
2019-02-21T04:34:35.955Z,54.83
2019-02-21T04:37:05.112Z,49.60
2019-02-21T04:39:34.231Z,51.87
2019-02-21T04:42:03.348Z,57.93
2019-02-21T04:44:32.919Z,51.20
2019-02-21T04:47:02.191Z,49.33
2019-02-21T04:49:31.875Z,62.47
2019-02-21T04:52:01.174Z,54.60
2019-02-21T04:54:30.336Z,53.77
2019-02-21T04:57:00.221Z,56.10
2019-02-21T04:59:30.012Z,54.40
2019-02-21T05:01:59.727Z,59.10
2019-02-21T05:04:29.383Z,60.33
2019-02-21T05:06:58.639Z,64.27
2019-02-21T05:09:28.313Z,53.53
2019-02-21T05:11:57.662Z,54.67
2019-02-21T05:14:27.271Z,61.27
2019-02-21T05:16:56.996Z,63.53
2019-02-21T05:19:26.690Z,61.20
2019-02-21T05:21:55.911Z,61.60
2019-02-21T05:24:25.187Z,59.93
2019-02-21T05:26:59.371Z,55.77
2019-02-21T05:29:28.697Z,58.97
2019-02-21T05:32:40.610Z,59.03
2019-02-21T05:35:10.461Z,59.17
2019-02-21T05:37:51.210Z,65.73
2019-02-21T05:40:43.452Z,66.83
2019-02-21T05:43:33.020Z,58.80
2019-02-21T05:46:21.549Z,64.23
2019-02-21T05:48:59.517Z,63.47
2019-02-21T05:51:39.574Z,68.47
2019-02-21T05:54:43.038Z,62.80
2019-02-21T05:57:30.353Z,64.47
2019-02-21T06:00:22.724Z,65.87
2019-02-21T06:03:06.950Z,63.03
2019-02-21T06:05:52.187Z,62.23
2019-02-21T06:08:32.059Z,72.53
2019-02-21T06:11:18.999Z,67.10
2019-02-21T06:17:23.611Z,70.17
2019-02-21T06:20:33.747Z,65.80
2019-02-21T06:23:28.690Z,69.00
2019-02-21T06:26:09.071Z,70.63
2019-02-21T06:29:03.385Z,74.60
2019-02-21T06:31:33.073Z,72.03
2019-02-21T06:34:02.440Z,77.37
2019-02-21T06:36:31.877Z,69.87
2019-02-21T06:39:01.109Z,72.57
2019-02-21T06:41:32.459Z,81.87
2019-02-21T06:44:02.200Z,72.23
2019-02-21T06:46:31.605Z,79.97
2019-02-21T06:49:00.847Z,76.80
2019-02-21T06:51:30.516Z,75.30
2019-02-21T06:53:59.814Z,82.30
2019-02-21T06:56:29.090Z,78.33
2019-02-21T06:58:58.355Z,80.37
2019-02-21T07:01:29.531Z,76.17
2019-02-21T07:04:01.645Z,72.00
2019-02-21T07:06:32.303Z,76.30
2019-02-21T07:09:01.386Z,72.10
2019-02-21T07:11:33.178Z,80.17
2019-02-21T07:14:03.241Z,79.50
2019-02-21T07:16:33.130Z,76.57
2019-02-21T07:19:02.968Z,74.90
2019-02-21T07:21:32.726Z,75.17
2019-02-21T07:24:02.126Z,76.53
2019-02-21T07:26:31.379Z,79.07
2019-02-21T07:29:00.562Z,73.87
2019-02-21T07:31:32.536Z,79.60
2019-02-21T07:34:01.813Z,75.23
2019-02-21T07:36:32.168Z,70.20
2019-02-21T07:39:16.177Z,78.23
2019-02-21T07:41:33.915Z,76.73
2019-02-21T07:44:11.683Z,82.80
2019-02-21T07:46:34.638Z,79.40
2019-02-21T07:49:04.458Z,76.13
2019-02-21T07:51:36.031Z,110.90
2019-02-21T07:54:08.695Z,102.67
2019-02-21T07:56:41.921Z,77.30
2019-02-21T07:59:12.015Z,73.20
2019-02-21T08:01:41.799Z,75.83
2019-02-21T08:04:11.422Z,77.47
2019-02-21T08:06:41.310Z,73.50
2019-02-21T08:09:10.567Z,70.30
2019-02-21T08:11:40.274Z,79.83
2019-02-21T08:14:10.924Z,75.37
2019-02-21T08:16:40.833Z,77.90
2019-02-21T08:19:10.566Z,82.50
2019-02-21T08:21:43.272Z,81.73
2019-02-21T08:24:11.795Z,77.10
2019-02-21T08:26:41.503Z,72.07
2019-02-21T08:29:10.746Z,74.43
2019-02-21T08:31:39.900Z,74.20
2019-02-21T08:34:13.705Z,71.13
2019-02-21T08:36:43.460Z,76.57
2019-02-21T08:39:14.614Z,69.93
2019-02-21T08:41:44.456Z,77.30
2019-02-21T08:44:14.214Z,69.13
2019-02-21T08:46:43.965Z,67.83
2019-02-21T08:49:13.749Z,71.20
2019-02-21T08:51:43.979Z,68.53
2019-02-21T08:54:14.777Z,70.60
2019-02-21T08:56:44.203Z,71.47
2019-02-21T08:59:13.645Z,73.23
2019-02-21T09:01:43.492Z,67.13
2019-02-21T09:04:26.466Z,66.93
2019-02-21T09:06:44.249Z,65.60
2019-02-21T09:09:14.304Z,65.23
2019-02-21T09:11:44.212Z,60.17
2019-02-21T09:14:13.910Z,63.50
2019-02-21T09:16:43.920Z,61.80
2019-02-21T09:19:13.243Z,64.43
2019-02-21T09:21:42.659Z,60.93
2019-02-21T09:24:13.734Z,60.57
2019-02-21T09:26:44.108Z,60.30
2019-02-21T09:29:14.634Z,61.63
2019-02-21T09:31:45.539Z,58.10
2019-02-21T09:34:21.050Z,58.03
2019-02-21T09:36:46.553Z,56.80
2019-02-21T09:39:16.761Z,57.00
2019-02-21T09:41:46.733Z,51.90
2019-02-21T09:44:18.159Z,58.67
2019-02-21T09:46:47.069Z,55.97
2019-02-21T09:49:16.814Z,51.57
2019-02-21T09:51:47.769Z,54.73
2019-02-21T09:54:19.102Z,54.50
2019-02-21T09:56:52.815Z,52.23
2019-02-21T09:59:21.436Z,47.60
2019-02-21T10:01:52.036Z,48.47
2019-02-21T10:04:31.905Z,51.13
2019-02-21T10:06:54.055Z,52.00
2019-02-21T10:09:23.713Z,53.33
2019-02-21T10:11:53.699Z,51.70
2019-02-21T10:14:23.790Z,56.57
2019-02-21T10:16:53.615Z,49.20
2019-02-21T10:19:24.560Z,48.97
2019-02-21T10:21:55.406Z,48.57
2019-02-21T10:24:25.370Z,50.80
2019-02-21T10:26:55.397Z,53.67
2019-02-21T10:29:25.319Z,49.80
2019-02-21T10:31:55.085Z,48.47
2019-02-21T10:34:24.367Z,51.23
2019-02-21T10:36:54.269Z,53.87
2019-02-21T10:39:23.642Z,53.73
2019-02-21T10:41:53.975Z,49.53
2019-02-21T10:44:23.782Z,49.60
2019-02-21T10:46:53.588Z,50.73
2019-02-21T10:49:23.394Z,54.60
2019-02-21T10:51:53.134Z,50.10
2019-02-21T10:54:23.944Z,51.13
2019-02-21T10:56:53.659Z,53.43
2019-02-21T10:59:23.448Z,55.27
2019-02-21T11:01:54.924Z,53.73
2019-02-21T11:04:24.244Z,53.40
2019-02-21T11:06:53.562Z,52.60
2019-02-21T11:09:23.959Z,54.53
2019-02-21T11:11:53.872Z,52.17
2019-02-21T11:14:23.721Z,57.43
2019-02-21T11:16:53.567Z,54.80
2019-02-21T11:19:23.382Z,52.57
2019-02-21T11:21:53.162Z,59.73
2019-02-21T11:24:22.409Z,55.93
2019-02-21T11:26:51.714Z,58.13
2019-02-21T11:29:21.509Z,70.03
2019-02-21T11:31:51.812Z,58.90
2019-02-21T11:34:21.512Z,61.17
2019-02-21T11:36:50.812Z,51.20
2019-02-21T11:39:21.586Z,58.40
2019-02-21T11:41:51.494Z,55.27
2019-02-21T11:44:21.237Z,56.70
2019-02-21T11:46:50.944Z,58.27
2019-02-21T11:49:20.319Z,59.07
2019-02-21T11:51:49.505Z,59.37
2019-02-21T11:54:26.863Z,60.37
2019-02-21T11:56:50.775Z,60.13
2019-02-21T11:59:20.138Z,58.07
2019-02-21T12:01:49.430Z,61.17
2019-02-21T12:04:18.632Z,69.07
2019-02-21T12:06:48.309Z,63.20
2019-02-21T12:09:18.521Z,70.00
2019-02-21T12:11:48.382Z,74.70
2019-02-21T12:14:22.294Z,70.97
2019-02-21T12:16:54.643Z,68.70
2019-02-21T12:19:27.371Z,72.37
2019-02-21T12:21:59.394Z,75.97
2019-02-21T12:24:31.428Z,71.27
2019-02-21T12:27:05.350Z,68.57
2019-02-21T12:29:37.910Z,62.90
2019-02-21T12:32:07.590Z,75.67
2019-02-21T12:34:37.464Z,78.77
2019-02-21T12:37:07.322Z,68.60
2019-02-21T12:39:36.674Z,77.23
2019-02-21T12:42:06.430Z,73.57
2019-02-21T12:44:36.213Z,71.83
2019-02-21T12:47:06.000Z,68.07
2019-02-21T12:49:35.815Z,77.93
2019-02-21T12:52:05.081Z,86.67
2019-02-21T12:54:34.903Z,81.00
2019-02-21T12:57:04.630Z,79.77
2019-02-21T12:59:33.900Z,74.57
2019-02-21T13:02:03.094Z,75.17
2019-02-21T13:04:33.457Z,75.80
2019-02-21T13:07:02.813Z,76.53
2019-02-21T13:09:32.070Z,76.03
2019-02-21T13:12:02.964Z,68.70
2019-02-21T13:14:34.375Z,78.03
2019-02-21T13:17:04.169Z,67.63
2019-02-21T13:19:33.879Z,58.87
2019-02-21T13:22:03.729Z,65.70
2019-02-21T13:24:33.323Z,62.73
2019-02-21T13:27:02.618Z,59.07
2019-02-21T13:29:33.287Z,57.27
2019-02-21T13:32:04.078Z,63.77
2019-02-21T13:34:34.330Z,55.63
2019-02-21T13:37:04.215Z,56.43
2019-02-21T13:39:34.323Z,55.63
2019-02-21T13:42:04.133Z,59.30
2019-02-21T13:44:33.906Z,55.07
2019-02-21T13:47:03.777Z,52.43
2019-02-21T13:49:33.028Z,54.90
2019-02-21T13:52:03.771Z,52.27
2019-02-21T13:54:33.443Z,51.60
2019-02-21T13:57:02.728Z,51.20
2019-02-21T13:59:34.788Z,57.73
2019-02-21T14:02:03.428Z,59.03
2019-02-21T14:04:36.338Z,57.13
2019-02-21T14:07:05.658Z,53.83
2019-02-21T14:09:37.763Z,57.30
2019-02-21T14:12:06.594Z,54.43
2019-02-21T14:14:36.531Z,61.20
2019-02-21T14:17:06.696Z,51.03
2019-02-21T14:19:36.503Z,53.77
2019-02-21T14:22:07.014Z,56.77
2019-02-21T14:24:37.292Z,57.17
2019-02-21T14:30:23.447Z,56.73
2019-02-21T14:32:53.164Z,64.77
2019-02-21T14:35:23.979Z,73.83
2019-02-21T14:37:55.445Z,59.20
2019-02-21T14:40:25.449Z,55.80
2019-02-21T14:42:55.387Z,57.73
2019-02-21T14:45:25.809Z,57.70
2019-02-21T14:47:55.106Z,59.17
2019-02-21T14:50:24.555Z,58.53
2019-02-21T14:52:53.986Z,61.60
2019-02-21T14:55:23.730Z,62.50
2019-02-21T14:57:56.588Z,61.53
2019-02-21T15:00:26.024Z,64.83
2019-02-21T15:02:57.635Z,67.63
2019-02-21T15:05:26.777Z,61.33
2019-02-21T15:07:57.140Z,70.60
2019-02-21T15:10:27.252Z,66.63
2019-02-21T15:12:59.373Z,63.07
2019-02-21T15:15:32.166Z,63.40
2019-02-21T15:18:07.453Z,71.57
2019-02-21T15:20:36.858Z,72.10
2019-02-21T15:23:03.297Z,65.33
2019-02-21T15:25:33.677Z,66.43
2019-02-21T15:28:04.443Z,69.10
2019-02-21T15:33:54.809Z,60.37
2019-02-21T15:46:15.223Z,59.50
2019-02-21T15:49:25.983Z,60.10
2019-02-21T15:51:55.457Z,60.53
2019-02-21T15:54:25.023Z,64.50
2019-02-21T15:56:54.248Z,62.83
2019-02-21T15:59:23.865Z,60.60
2019-02-21T16:01:54.173Z,64.67
2019-02-21T16:04:23.319Z,62.83
2019-02-21T16:06:52.489Z,67.70
2019-02-21T16:09:25.317Z,62.97
2019-02-21T16:11:54.844Z,64.37
2019-02-21T16:14:24.664Z,64.00
2019-02-21T16:16:53.875Z,65.20
2019-02-21T16:19:23.695Z,65.27
2019-02-21T16:21:53.398Z,65.10
2019-02-21T16:24:23.078Z,61.43
2019-02-21T16:26:52.290Z,60.83
2019-02-21T16:29:21.408Z,61.67
2019-02-21T16:31:50.636Z,57.70
2019-02-21T16:34:19.729Z,56.03
2019-02-21T16:36:49.382Z,57.20
2019-02-21T16:39:19.061Z,64.83
2019-02-21T16:41:48.787Z,63.83
2019-02-21T16:44:18.512Z,62.50
2019-02-21T16:46:47.826Z,64.60
2019-02-21T16:49:16.960Z,58.63
2019-02-21T16:51:46.708Z,64.97
2019-02-21T16:54:15.966Z,68.77
2019-02-21T16:56:45.657Z,63.67
2019-02-21T16:59:15.019Z,69.93
2019-02-21T17:01:44.312Z,62.33
2019-02-21T17:04:13.934Z,60.13
2019-02-21T17:06:43.955Z,60.27
2019-02-21T17:09:13.734Z,60.27
2019-02-21T17:11:43.528Z,61.37
2019-02-21T17:14:13.315Z,58.40
2019-02-21T17:16:42.627Z,51.97
2019-02-21T17:19:12.230Z,54.43
2019-02-21T17:21:41.864Z,58.47
2019-02-21T17:24:11.115Z,48.87
2019-02-21T17:26:40.750Z,52.43
2019-02-21T17:29:10.037Z,48.27
2019-02-21T17:31:39.582Z,46.87
2019-02-21T17:34:08.877Z,46.47
2019-02-21T17:36:38.021Z,45.13
2019-02-21T17:39:08.044Z,45.47
2019-02-21T17:41:38.682Z,42.90
2019-02-21T17:44:08.261Z,39.57
2019-02-21T17:46:38.023Z,40.73
2019-02-21T17:49:08.554Z,39.80
2019-02-21T17:51:38.604Z,41.23
2019-02-21T17:54:07.863Z,40.80
2019-02-21T17:56:37.531Z,43.20
2019-02-21T17:59:07.258Z,40.33
2019-02-21T18:01:37.927Z,34.40
2019-02-21T18:04:07.767Z,35.07
2019-02-21T18:06:37.543Z,40.07
2019-02-21T18:09:07.579Z,38.97
2019-02-21T18:11:38.348Z,35.30
2019-02-21T18:14:07.950Z,35.67
2019-02-21T18:16:37.629Z,33.10
2019-02-21T18:19:07.287Z,38.57
2019-02-21T18:21:36.994Z,42.67
2019-02-21T18:24:06.210Z,40.87
2019-02-21T18:26:35.415Z,35.43
2019-02-21T18:29:04.683Z,31.87
2019-02-21T18:31:33.959Z,30.00
2019-02-21T18:34:03.186Z,25.73
2019-02-21T18:36:32.306Z,29.23
2019-02-21T18:39:03.494Z,31.63
2019-02-21T18:41:34.772Z,29.93
2019-02-21T18:44:04.611Z,29.73
2019-02-21T18:46:34.298Z,31.73
2019-02-21T18:49:04.034Z,29.13
2019-02-21T18:51:33.313Z,31.77
2019-02-21T18:54:02.954Z,34.33
2019-02-21T18:56:32.456Z,32.57
2019-02-21T18:59:01.604Z,34.17
2019-02-21T19:01:30.751Z,33.00
2019-02-21T19:04:00.039Z,37.60
2019-02-21T19:06:29.226Z,33.93
2019-02-21T19:08:59.466Z,36.83
2019-02-21T19:11:28.742Z,42.13
2019-02-21T19:13:57.967Z,36.13
2019-02-21T19:16:27.718Z,41.20
2019-02-21T19:18:57.667Z,40.20
2019-02-21T19:21:26.981Z,38.97
2019-02-21T19:23:58.476Z,39.63
2019-02-21T19:26:26.954Z,40.37
2019-02-21T19:28:56.097Z,38.53
2019-02-21T19:31:26.067Z,42.27
2019-02-21T19:33:55.375Z,43.33
2019-02-21T19:36:24.567Z,46.60
2019-02-21T19:38:54.268Z,44.63
2019-02-21T19:41:23.519Z,47.70
2019-02-21T19:43:53.182Z,43.33
2019-02-21T19:46:23.466Z,43.87
2019-02-21T19:48:52.697Z,48.63
2019-02-21T19:51:22.443Z,44.17
2019-02-21T19:53:51.769Z,42.30
2019-02-21T19:56:21.405Z,41.40
2019-02-21T19:58:50.781Z,37.50
2019-02-21T20:01:20.066Z,39.67
2019-02-21T20:03:49.219Z,39.77
2019-02-21T20:06:18.358Z,34.00
2019-02-21T20:08:48.126Z,37.90
2019-02-21T20:11:17.934Z,34.50
2019-02-21T20:13:47.292Z,34.67
2019-02-21T20:16:16.866Z,35.13
2019-02-21T20:18:46.056Z,33.73
2019-02-21T20:21:15.885Z,31.77
2019-02-21T20:23:45.325Z,32.70
2019-02-21T20:26:18.460Z,32.00
2019-02-21T20:28:45.684Z,31.60
2019-02-21T20:31:15.337Z,32.97
2019-02-21T20:33:44.979Z,30.30
2019-02-21T20:36:14.214Z,31.07
2019-02-21T20:38:43.786Z,29.57
2019-02-21T20:41:13.513Z,30.57
2019-02-21T20:43:42.790Z,27.20
2019-02-21T20:46:11.938Z,28.77
2019-02-21T20:48:41.119Z,31.30
2019-02-21T20:51:10.520Z,28.00
2019-02-21T20:53:39.724Z,26.07
2019-02-21T20:56:08.841Z,28.37
2019-02-21T20:58:38.120Z,26.73
2019-02-21T21:01:08.519Z,29.40
2019-02-21T21:03:38.129Z,26.43
2019-02-21T21:06:07.754Z,31.90
2019-02-21T21:08:42.966Z,28.03
2019-02-21T21:11:07.896Z,32.50
2019-02-21T21:13:37.018Z,32.50
2019-02-21T21:16:06.610Z,42.27
2019-02-21T21:18:36.302Z,31.47
2019-02-21T21:21:05.579Z,28.97
2019-02-21T21:23:35.711Z,31.40
2019-02-21T21:26:05.480Z,29.27
2019-02-21T21:28:35.217Z,31.53
2019-02-21T21:31:04.600Z,32.77
2019-02-21T21:33:34.122Z,31.03
2019-02-21T21:36:03.739Z,31.83
2019-02-21T21:38:32.952Z,27.63
2019-02-21T21:41:03.691Z,29.67
2019-02-21T21:43:34.078Z,29.80
2019-02-21T21:46:04.758Z,29.27
2019-02-21T21:48:34.522Z,30.97
2019-02-21T21:51:04.332Z,30.43
2019-02-21T21:53:33.566Z,27.33
2019-02-21T21:56:03.257Z,27.47
2019-02-21T21:58:32.929Z,26.53
2019-02-21T22:01:02.135Z,32.63
2019-02-21T22:03:31.754Z,26.93
2019-02-21T22:06:00.991Z,29.57
2019-02-21T22:08:30.106Z,42.43
2019-02-21T22:10:59.281Z,37.83
2019-02-21T22:13:28.477Z,49.40
2019-02-21T22:15:58.170Z,33.47
2019-02-21T22:18:27.438Z,29.73
2019-02-21T22:20:57.168Z,33.87
2019-02-21T22:23:27.530Z,33.60
2019-02-21T22:25:57.310Z,36.53
2019-02-21T22:28:26.548Z,34.60
2019-02-21T22:30:57.937Z,35.13
2019-02-21T22:33:27.528Z,37.70
2019-02-21T22:35:56.783Z,38.40
2019-02-21T22:38:29.060Z,40.53
2019-02-21T22:40:58.625Z,38.67
2019-02-21T22:43:28.315Z,44.87
2019-02-21T22:45:58.168Z,45.43
2019-02-21T22:48:27.902Z,42.67
2019-02-21T22:50:57.690Z,55.43
2019-02-21T22:53:27.469Z,49.93
2019-02-21T22:55:57.304Z,35.97
2019-02-21T22:58:26.847Z,18.70
2019-02-21T23:01:28.531Z,14.60
2019-02-21T23:04:19.550Z,13.07
2019-02-21T23:06:51.131Z,6.73
2019-02-21T23:09:27.444Z,6.87
2019-02-21T23:11:53.912Z,8.17
2019-02-21T23:14:23.727Z,6.83
2019-02-21T23:16:53.507Z,4.67
2019-02-21T23:19:24.203Z,5.07
2019-02-21T23:21:54.471Z,5.00
2019-02-21T23:24:23.719Z,3.00
2019-02-21T23:26:53.267Z,3.10
2019-02-21T23:29:22.910Z,3.30
2019-02-21T23:31:52.291Z,6.10
2019-02-21T23:34:39.093Z,3.40
2019-02-21T23:37:09.804Z,7.20
2019-02-21T23:39:39.467Z,2.40
2019-02-21T23:42:09.137Z,2.03
2019-02-21T23:44:38.807Z,5.73
2019-02-21T23:47:08.437Z,2.73
2019-02-21T23:49:38.119Z,4.57
2019-02-21T23:52:07.843Z,2.83
2019-02-21T23:54:37.491Z,7.27
2019-02-21T23:57:07.133Z,5.87
2019-02-21T23:59:36.467Z,4.77
